createdAt,value
2022-07-31T00:13:59.380Z,89.62
2022-07-31T00:16:32.032Z,90.01
2022-07-31T00:18:59.482Z,89.77
2022-07-31T00:21:26.341Z,90.35
2022-07-31T00:23:53.704Z,91.02
2022-07-31T00:26:20.801Z,91.71
2022-07-31T00:28:48.461Z,90.95
2022-07-31T00:31:15.634Z,90.37
2022-07-31T00:33:43.121Z,90.67
2022-07-31T00:36:10.881Z,91.92
2022-07-31T00:38:37.840Z,91.18
2022-07-31T00:41:04.972Z,91.19
2022-07-31T00:43:31.960Z,91.40
2022-07-31T00:45:59.612Z,91.97
2022-07-31T00:48:27.614Z,92.87
2022-07-31T00:50:55.990Z,92.71
2022-07-31T00:53:22.996Z,92.98
2022-07-31T00:55:51.251Z,93.59
2022-07-31T00:58:20.413Z,93.27
2022-07-31T01:00:48.310Z,93.79
2022-07-31T01:03:15.703Z,93.03
2022-07-31T01:05:52.417Z,93.52
2022-07-31T01:08:19.461Z,93.35
2022-07-31T01:11:15.992Z,92.36
2022-07-31T01:13:52.799Z,92.48
2022-07-31T01:16:22.242Z,92.68
2022-07-31T01:18:52.360Z,92.68
2022-07-31T01:21:35.780Z,92.87
2022-07-31T01:24:46.572Z,93.55
2022-07-31T01:27:31.214Z,92.80
2022-07-31T01:30:03.121Z,92.76
2022-07-31T01:32:36.052Z,92.46
2022-07-31T01:35:08.130Z,92.47
2022-07-31T01:37:50.542Z,92.31
2022-07-31T01:40:23.113Z,91.96
2022-07-31T01:42:58.964Z,91.88
2022-07-31T01:45:27.851Z,91.51
2022-07-31T01:47:56.740Z,91.36
2022-07-31T01:50:43.091Z,91.17
2022-07-31T01:53:15.378Z,91.99
2022-07-31T01:56:03.858Z,93.25
2022-07-31T01:58:36.044Z,93.09
2022-07-31T02:01:04.853Z,93.17
2022-07-31T02:03:43.635Z,93.79
2022-07-31T02:06:17.645Z,93.46
2022-07-31T02:08:47.675Z,92.23
2022-07-31T02:11:20.175Z,91.26
2022-07-31T02:13:52.434Z,92.09
2022-07-31T02:16:21.411Z,92.28
2022-07-31T02:18:51.237Z,92.51
2022-07-31T02:21:18.324Z,93.66
2022-07-31T02:23:45.480Z,93.13
2022-07-31T02:26:15.876Z,93.40
2022-07-31T02:28:44.355Z,93.53
2022-07-31T02:31:13.381Z,93.09
2022-07-31T02:33:43.691Z,91.60
2022-07-31T02:36:16.653Z,92.15
2022-07-31T02:38:48.581Z,91.01
2022-07-31T02:41:17.589Z,90.60
2022-07-31T02:43:45.772Z,90.70
2022-07-31T02:46:14.445Z,91.23
2022-07-31T02:48:42.231Z,91.35
2022-07-31T02:51:09.783Z,90.89
2022-07-31T02:53:40.295Z,91.63
2022-07-31T02:56:09.607Z,92.69
2022-07-31T02:58:42.155Z,92.56
2022-07-31T03:01:09.837Z,91.93
2022-07-31T03:03:39.011Z,91.44
2022-07-31T03:06:06.351Z,91.22
2022-07-31T03:08:33.433Z,91.17
2022-07-31T03:11:00.984Z,91.04
2022-07-31T03:13:30.186Z,91.41
2022-07-31T03:15:58.305Z,91.15
2022-07-31T03:18:26.456Z,90.75
2022-07-31T03:20:55.174Z,90.23
2022-07-31T03:23:25.053Z,90.44
2022-07-31T03:25:53.113Z,90.06
2022-07-31T03:28:21.177Z,89.86
2022-07-31T03:30:56.224Z,90.57
2022-07-31T03:33:23.964Z,91.02
2022-07-31T03:35:51.163Z,91.87
2022-07-31T03:38:38.375Z,90.65
2022-07-31T03:41:07.446Z,90.24
2022-07-31T03:43:43.654Z,89.75
2022-07-31T03:46:20.188Z,89.22
2022-07-31T03:48:48.017Z,89.28
2022-07-31T03:51:16.188Z,88.98
2022-07-31T03:53:44.055Z,89.03
2022-07-31T03:56:12.724Z,88.47
2022-07-31T03:58:41.866Z,88.51
2022-07-31T04:01:12.645Z,88.17
2022-07-31T04:03:40.196Z,88.82
2022-07-31T04:06:07.894Z,89.36
2022-07-31T04:08:35.043Z,88.80
2022-07-31T04:11:02.383Z,89.12
2022-07-31T04:13:29.543Z,89.39
2022-07-31T04:15:56.663Z,89.84
2022-07-31T04:18:23.612Z,90.04
2022-07-31T04:20:50.620Z,89.05
2022-07-31T04:23:17.744Z,89.09
2022-07-31T04:25:46.534Z,89.51
2022-07-31T04:28:13.691Z,89.58
2022-07-31T04:30:41.167Z,89.27
2022-07-31T04:33:08.353Z,89.09
2022-07-31T04:35:35.541Z,88.33
2022-07-31T04:38:04.703Z,88.01
2022-07-31T04:40:31.854Z,87.19
2022-07-31T04:42:58.986Z,87.50
2022-07-31T04:45:26.100Z,85.65
2022-07-31T04:47:53.194Z,83.85
2022-07-31T04:50:20.163Z,82.22
2022-07-31T04:53:01.332Z,78.43
2022-07-31T04:55:28.392Z,79.11
2022-07-31T04:57:55.522Z,78.91
2022-07-31T05:00:23.227Z,78.79
2022-07-31T05:02:50.272Z,79.70
2022-07-31T05:05:18.571Z,79.24
2022-07-31T05:07:46.082Z,79.28
2022-07-31T05:10:33.018Z,79.28
2022-07-31T05:13:00.150Z,79.72
2022-07-31T05:15:27.114Z,79.94
2022-07-31T05:17:54.025Z,80.10
2022-07-31T05:20:21.282Z,79.87
2022-07-31T05:22:48.191Z,80.24
2022-07-31T05:25:15.416Z,80.09
2022-07-31T05:27:42.272Z,79.94
2022-07-31T05:30:11.042Z,79.75
2022-07-31T05:32:38.064Z,79.08
2022-07-31T05:35:05.309Z,79.82
2022-07-31T05:37:34.126Z,79.78
2022-07-31T05:40:00.984Z,79.26
2022-07-31T05:42:28.023Z,79.01
2022-07-31T05:44:54.974Z,78.65
2022-07-31T05:47:22.237Z,78.25
2022-07-31T05:49:49.253Z,77.89
2022-07-31T05:52:18.985Z,78.71
2022-07-31T05:54:46.016Z,77.20
2022-07-31T05:57:13.004Z,75.63
2022-07-31T05:59:59.716Z,75.71
2022-07-31T06:02:28.919Z,74.56
2022-07-31T06:04:55.823Z,74.67
2022-07-31T06:07:22.754Z,74.22
2022-07-31T06:09:49.634Z,74.50
2022-07-31T06:12:17.466Z,74.63
2022-07-31T06:14:44.423Z,74.92
2022-07-31T06:17:11.502Z,74.20
2022-07-31T06:19:38.636Z,73.61
2022-07-31T06:22:06.225Z,73.68
2022-07-31T06:24:33.769Z,72.51
2022-07-31T06:27:02.216Z,72.38
2022-07-31T06:29:41.418Z,71.80
2022-07-31T06:32:09.385Z,70.01
2022-07-31T06:34:36.355Z,69.89
2022-07-31T06:37:03.216Z,69.98
2022-07-31T06:39:54.866Z,68.75
2022-07-31T06:42:20.598Z,68.78
2022-07-31T06:44:47.690Z,69.45
2022-07-31T06:47:18.815Z,68.45
2022-07-31T06:49:45.942Z,68.34
2022-07-31T06:52:13.104Z,68.78
2022-07-31T06:54:40.153Z,68.04
2022-07-31T06:57:07.774Z,66.37
2022-07-31T06:59:40.107Z,64.91
2022-07-31T07:02:08.143Z,63.12
2022-07-31T07:05:04.342Z,61.56
2022-07-31T07:07:22.896Z,58.85
2022-07-31T07:09:49.987Z,59.86
2022-07-31T07:12:17.139Z,55.95
2022-07-31T07:14:44.554Z,55.71
2022-07-31T07:17:11.764Z,55.52
2022-07-31T07:19:42.105Z,52.64
2022-07-31T07:22:09.336Z,52.83
2022-07-31T07:24:36.194Z,52.40
2022-07-31T07:27:03.164Z,51.61
2022-07-31T07:29:30.405Z,51.13
2022-07-31T07:31:57.284Z,50.90
2022-07-31T07:34:24.254Z,49.18
2022-07-31T07:36:51.195Z,49.99
2022-07-31T07:39:18.166Z,50.51
2022-07-31T07:41:45.144Z,49.25
2022-07-31T07:44:12.744Z,49.87
2022-07-31T07:46:40.036Z,49.65
2022-07-31T07:49:07.173Z,49.49
2022-07-31T07:51:34.286Z,49.29
2022-07-31T07:54:01.675Z,47.62
2022-07-31T07:56:29.024Z,50.65
2022-07-31T07:58:56.272Z,50.32
2022-07-31T08:01:25.398Z,52.15
2022-07-31T08:03:52.597Z,53.78
2022-07-31T08:06:22.826Z,53.53
2022-07-31T08:08:50.503Z,53.69
2022-07-31T08:11:24.323Z,53.61
2022-07-31T08:13:54.556Z,52.61
2022-07-31T08:16:22.834Z,51.79
2022-07-31T08:18:51.865Z,50.72
2022-07-31T08:21:19.055Z,50.16
2022-07-31T08:23:46.296Z,48.74
2022-07-31T08:26:22.866Z,49.31
2022-07-31T08:28:55.932Z,47.98
2022-07-31T08:31:23.344Z,46.29
2022-07-31T08:33:50.574Z,45.69
2022-07-31T08:36:17.479Z,44.28
2022-07-31T08:38:44.676Z,45.52
2022-07-31T08:41:14.896Z,44.38
2022-07-31T08:44:00.113Z,43.21
2022-07-31T08:46:29.582Z,43.28
2022-07-31T08:48:57.595Z,43.14
2022-07-31T08:51:24.666Z,43.75
2022-07-31T08:53:52.096Z,41.27
2022-07-31T08:56:20.732Z,40.61
2022-07-31T08:58:47.607Z,41.50
2022-07-31T09:01:15.251Z,42.83
2022-07-31T09:03:42.667Z,43.56
2022-07-31T09:06:09.852Z,41.91
2022-07-31T09:08:38.214Z,44.10
2022-07-31T09:11:06.756Z,43.11
2022-07-31T09:13:37.722Z,41.29
2022-07-31T09:16:05.373Z,40.63
2022-07-31T09:18:35.552Z,38.91
2022-07-31T09:21:07.605Z,40.06
2022-07-31T09:23:50.833Z,38.93
2022-07-31T09:26:33.093Z,37.46
2022-07-31T09:29:03.768Z,36.62
2022-07-31T09:31:39.577Z,36.62
2022-07-31T09:34:06.966Z,38.06
2022-07-31T09:36:46.922Z,36.12
2022-07-31T09:39:27.027Z,34.89
2022-07-31T09:42:01.141Z,36.41
2022-07-31T09:44:46.166Z,36.41
2022-07-31T09:47:27.092Z,34.03
2022-07-31T09:50:01.454Z,36.56
2022-07-31T09:52:30.601Z,36.35
2022-07-31T09:55:24.892Z,37.53
2022-07-31T09:58:04.083Z,37.23
2022-07-31T10:00:43.052Z,36.33
2022-07-31T10:03:13.734Z,35.99
2022-07-31T10:05:42.554Z,37.84
2022-07-31T10:08:10.872Z,38.89
2022-07-31T10:10:38.421Z,39.84
2022-07-31T10:13:13.284Z,41.37
2022-07-31T10:15:44.483Z,41.04
2022-07-31T10:18:11.853Z,40.81
2022-07-31T10:20:45.985Z,39.83
2022-07-31T10:23:23.123Z,39.81
2022-07-31T10:25:53.649Z,38.86
2022-07-31T10:28:22.852Z,38.92
2022-07-31T10:30:50.292Z,39.41
2022-07-31T10:33:42.334Z,38.86
2022-07-31T10:36:23.211Z,38.81
2022-07-31T10:39:15.604Z,39.31
2022-07-31T10:42:06.723Z,40.05
2022-07-31T10:44:45.603Z,41.17
2022-07-31T10:47:17.392Z,41.27
2022-07-31T10:49:46.923Z,40.29
2022-07-31T10:52:15.652Z,40.78
2022-07-31T10:54:47.386Z,39.59
2022-07-31T10:57:32.361Z,37.44
2022-07-31T11:00:14.952Z,36.56
2022-07-31T11:02:42.583Z,35.74
2022-07-31T11:05:28.077Z,35.50
2022-07-31T11:08:05.226Z,34.16
2022-07-31T11:10:36.971Z,35.09
2022-07-31T11:13:11.471Z,36.55
2022-07-31T11:15:38.971Z,35.03
2022-07-31T11:18:27.429Z,32.67
2022-07-31T11:21:17.727Z,32.90
2022-07-31T11:24:02.228Z,34.40
2022-07-31T11:26:33.092Z,32.91
2022-07-31T11:29:59.964Z,33.71
2022-07-31T11:32:04.895Z,33.23
2022-07-31T11:34:43.640Z,34.84
2022-07-31T11:37:20.769Z,34.76
2022-07-31T11:39:52.449Z,35.10
2022-07-31T11:42:22.782Z,34.72
2022-07-31T11:45:11.194Z,34.89
2022-07-31T11:48:11.700Z,35.86
2022-07-31T11:50:31.152Z,36.95
2022-07-31T11:53:07.397Z,37.16
2022-07-31T11:56:04.633Z,37.88
2022-07-31T11:58:31.433Z,38.42
2022-07-31T12:01:01.262Z,38.96
2022-07-31T12:03:32.863Z,40.09
2022-07-31T12:06:00.505Z,39.31
2022-07-31T12:08:29.855Z,39.10
2022-07-31T12:11:00.147Z,38.43
2022-07-31T12:13:28.707Z,38.60
2022-07-31T12:16:10.206Z,39.36
2022-07-31T12:18:51.313Z,38.34
2022-07-31T12:21:20.363Z,39.10
2022-07-31T12:23:52.414Z,38.88
2022-07-31T12:26:25.715Z,39.45
2022-07-31T12:29:00.963Z,39.93
2022-07-31T12:31:29.996Z,39.71
2022-07-31T12:33:57.191Z,40.45
2022-07-31T12:36:24.142Z,39.47
2022-07-31T12:39:01.551Z,39.00
2022-07-31T12:41:30.143Z,39.21
2022-07-31T12:44:13.422Z,39.95
2022-07-31T12:46:42.421Z,39.91
2022-07-31T12:49:09.749Z,38.92
2022-07-31T12:51:46.286Z,39.19
2022-07-31T12:54:18.457Z,39.48
2022-07-31T12:56:47.050Z,40.19
2022-07-31T12:59:15.207Z,40.31
2022-07-31T13:01:42.414Z,40.65
2022-07-31T13:04:18.196Z,40.65
2022-07-31T13:06:51.854Z,40.02
2022-07-31T13:09:19.176Z,40.31
2022-07-31T13:11:48.635Z,41.12
2022-07-31T13:14:21.677Z,41.04
2022-07-31T13:16:50.849Z,41.73
2022-07-31T13:19:20.390Z,40.56
2022-07-31T13:21:50.265Z,40.65
2022-07-31T13:24:21.105Z,40.75
2022-07-31T13:26:49.806Z,40.92
2022-07-31T13:29:18.194Z,41.45
2022-07-31T13:31:45.296Z,41.72
2022-07-31T13:34:12.799Z,42.20
2022-07-31T13:36:40.054Z,42.26
2022-07-31T13:39:11.316Z,43.24
2022-07-31T13:41:39.674Z,42.11
2022-07-31T13:44:07.537Z,42.41
2022-07-31T13:46:36.167Z,41.90
2022-07-31T13:49:08.771Z,41.50
2022-07-31T13:51:37.446Z,41.83
2022-07-31T13:54:05.448Z,41.57
2022-07-31T13:56:38.743Z,41.64
2022-07-31T13:59:13.655Z,42.30
2022-07-31T14:02:03.912Z,42.58
2022-07-31T14:04:32.540Z,41.95
2022-07-31T14:07:07.010Z,41.57
2022-07-31T14:09:35.270Z,41.71
2022-07-31T14:12:04.346Z,40.99
2022-07-31T14:14:32.096Z,41.13
2022-07-31T14:16:59.390Z,40.85
2022-07-31T14:19:26.715Z,40.23
2022-07-31T14:21:56.829Z,39.15
2022-07-31T14:24:25.675Z,38.23
2022-07-31T14:26:52.838Z,37.70
2022-07-31T14:29:19.917Z,37.16
2022-07-31T14:31:46.901Z,36.24
2022-07-31T14:34:14.466Z,35.42
2022-07-31T14:36:41.482Z,36.54
2022-07-31T14:39:08.807Z,36.44
2022-07-31T14:41:35.996Z,36.21
2022-07-31T14:44:04.087Z,35.17
2022-07-31T14:46:31.317Z,35.29
2022-07-31T14:49:00.380Z,35.36
2022-07-31T14:51:27.377Z,35.89
2022-07-31T14:53:54.726Z,35.24
2022-07-31T14:56:45.028Z,35.44
2022-07-31T14:59:08.624Z,35.88
2022-07-31T15:01:35.725Z,35.19
2022-07-31T15:04:03.023Z,35.53
2022-07-31T15:06:49.263Z,34.79
2022-07-31T15:09:19.762Z,35.08
2022-07-31T15:12:00.629Z,34.96
2022-07-31T15:14:29.830Z,35.07
2022-07-31T15:16:57.397Z,35.22
2022-07-31T15:19:24.387Z,35.81
2022-07-31T15:22:10.345Z,35.85
2022-07-31T15:24:46.843Z,36.00
2022-07-31T15:27:16.052Z,36.64
2022-07-31T15:30:05.196Z,36.39
2022-07-31T15:32:30.498Z,36.77
2022-07-31T15:34:57.536Z,37.73
2022-07-31T15:37:24.541Z,37.50
2022-07-31T15:40:02.922Z,37.73
2022-07-31T15:42:32.159Z,38.73
2022-07-31T15:44:59.379Z,37.91
2022-07-31T15:47:26.412Z,38.17
2022-07-31T15:49:53.441Z,38.00
2022-07-31T15:52:20.441Z,37.96
2022-07-31T15:54:51.565Z,37.84
2022-07-31T15:57:22.699Z,37.33
2022-07-31T15:59:51.518Z,37.46
2022-07-31T16:02:18.581Z,37.54
2022-07-31T16:04:53.077Z,37.33
2022-07-31T16:08:33.188Z,36.48
2022-07-31T16:10:17.935Z,36.20
2022-07-31T16:12:48.793Z,36.58
2022-07-31T16:15:17.240Z,36.36
2022-07-31T16:17:45.464Z,36.00
2022-07-31T16:20:26.784Z,35.26
2022-07-31T16:22:57.531Z,35.43
2022-07-31T16:25:26.280Z,35.43
2022-07-31T16:27:53.371Z,34.39
2022-07-31T16:30:21.183Z,33.59
2022-07-31T16:32:48.855Z,33.66
2022-07-31T16:35:16.006Z,33.33
2022-07-31T16:37:50.529Z,33.07
2022-07-31T16:40:28.811Z,32.82
2022-07-31T16:43:48.499Z,33.63
2022-07-31T16:45:51.164Z,33.31
2022-07-31T16:48:18.757Z,32.15
2022-07-31T16:50:48.220Z,31.86
2022-07-31T16:54:11.441Z,31.47
2022-07-31T16:56:08.421Z,31.55
2022-07-31T16:58:38.533Z,31.80
2022-07-31T17:01:06.449Z,32.25
2022-07-31T17:04:00.825Z,32.25
2022-07-31T17:06:37.884Z,32.07
2022-07-31T17:09:16.346Z,32.31
2022-07-31T17:11:47.023Z,33.18
2022-07-31T17:14:14.575Z,34.03
2022-07-31T17:16:46.835Z,34.18
2022-07-31T17:19:15.464Z,34.41
2022-07-31T17:21:44.364Z,34.86
2022-07-31T17:24:16.040Z,35.16
2022-07-31T17:26:43.984Z,35.32
2022-07-31T17:29:14.672Z,34.85
2022-07-31T17:31:41.633Z,35.46
2022-07-31T17:34:09.488Z,35.81
2022-07-31T17:36:36.732Z,36.20
2022-07-31T17:39:04.295Z,36.09
2022-07-31T17:41:31.422Z,36.38
2022-07-31T17:44:00.682Z,36.58
2022-07-31T17:46:34.894Z,36.86
2022-07-31T17:49:06.238Z,36.75
2022-07-31T17:51:33.585Z,36.87
2022-07-31T17:54:00.974Z,37.19
2022-07-31T17:56:28.311Z,37.71
2022-07-31T17:59:04.651Z,38.42
2022-07-31T18:01:34.962Z,38.17
2022-07-31T18:04:03.121Z,38.11
2022-07-31T18:06:30.760Z,38.41
2022-07-31T18:08:58.826Z,38.88
2022-07-31T18:11:25.886Z,39.13
2022-07-31T18:13:55.247Z,39.56
2022-07-31T18:16:23.451Z,40.18
2022-07-31T18:18:54.332Z,40.85
2022-07-31T18:21:21.855Z,41.62
2022-07-31T18:23:48.803Z,41.20
2022-07-31T18:26:15.973Z,42.21
2022-07-31T18:28:42.985Z,42.15
2022-07-31T18:31:31.912Z,42.44
2022-07-31T18:33:57.120Z,42.02
2022-07-31T18:36:24.052Z,42.01
2022-07-31T18:38:52.271Z,41.67
2022-07-31T18:41:20.750Z,41.92
2022-07-31T18:43:48.123Z,41.33
2022-07-31T18:46:15.774Z,41.49
2022-07-31T18:48:42.709Z,41.71
2022-07-31T18:51:09.773Z,41.96
2022-07-31T18:53:36.779Z,41.89
2022-07-31T18:56:04.697Z,41.68
2022-07-31T18:58:31.639Z,41.80
2022-07-31T19:00:58.751Z,42.29
2022-07-31T19:03:26.612Z,42.76
2022-07-31T19:05:53.858Z,44.67
2022-07-31T19:08:21.039Z,45.68
2022-07-31T19:10:49.798Z,47.07
2022-07-31T19:13:18.823Z,47.80
2022-07-31T19:15:51.728Z,48.52
2022-07-31T19:18:20.419Z,48.30
2022-07-31T19:21:00.420Z,48.32
2022-07-31T19:23:42.735Z,48.08
2022-07-31T19:26:09.843Z,48.78
2022-07-31T19:28:44.735Z,48.72
2022-07-31T19:31:13.499Z,49.81
2022-07-31T19:33:40.582Z,49.32
2022-07-31T19:36:07.902Z,50.02
2022-07-31T19:38:39.865Z,50.07
2022-07-31T19:41:07.096Z,49.92
2022-07-31T19:43:35.314Z,49.79
2022-07-31T19:46:11.825Z,49.57
2022-07-31T19:48:41.619Z,49.76
2022-07-31T19:51:10.197Z,50.70
2022-07-31T19:53:37.683Z,50.94
2022-07-31T19:56:06.499Z,51.06
2022-07-31T19:58:35.281Z,52.22
2022-07-31T20:01:06.308Z,53.15
2022-07-31T20:03:33.962Z,53.08
2022-07-31T20:06:02.315Z,53.33
2022-07-31T20:08:32.762Z,52.46
2022-07-31T20:11:04.174Z,52.72
2022-07-31T20:13:33.232Z,53.45
2022-07-31T20:16:00.847Z,53.97
2022-07-31T20:18:28.755Z,54.19
2022-07-31T20:21:05.515Z,54.49
2022-07-31T20:23:34.537Z,54.87
2022-07-31T20:26:01.749Z,55.14
2022-07-31T20:28:28.881Z,55.22
2022-07-31T20:30:55.885Z,56.34
2022-07-31T20:33:23.295Z,56.06
2022-07-31T20:35:51.022Z,56.44
2022-07-31T20:38:22.797Z,56.52
2022-07-31T20:40:54.037Z,56.49
2022-07-31T20:43:27.269Z,57.04
2022-07-31T20:45:57.769Z,56.73
2022-07-31T20:48:32.552Z,57.08
2022-07-31T20:51:01.479Z,56.88
2022-07-31T20:53:29.624Z,57.22
2022-07-31T20:55:57.231Z,56.61
2022-07-31T20:58:25.048Z,56.71
2022-07-31T21:00:54.877Z,56.80
2022-07-31T21:03:22.175Z,57.17
2022-07-31T21:05:49.799Z,56.14
2022-07-31T21:08:17.687Z,56.92
2022-07-31T21:10:45.246Z,57.92
2022-07-31T21:13:12.872Z,57.40
2022-07-31T21:15:42.414Z,57.25
2022-07-31T21:18:19.404Z,57.66
2022-07-31T21:20:52.481Z,57.19
2022-07-31T21:23:24.981Z,57.08
2022-07-31T21:25:57.633Z,57.45
2022-07-31T21:28:27.054Z,57.74
2022-07-31T21:30:56.558Z,57.80
2022-07-31T21:33:27.804Z,57.99
2022-07-31T21:35:55.424Z,58.48
2022-07-31T21:38:23.519Z,58.80
2022-07-31T21:40:50.769Z,58.70
2022-07-31T21:43:22.040Z,58.65
2022-07-31T21:45:54.868Z,58.93
2022-07-31T21:48:27.180Z,59.31
2022-07-31T21:50:55.228Z,58.87
2022-07-31T21:53:23.515Z,58.95
2022-07-31T21:55:50.648Z,58.65
2022-07-31T21:58:17.912Z,58.54
2022-07-31T22:00:45.081Z,58.93
2022-07-31T22:03:12.508Z,58.27
2022-07-31T22:05:57.680Z,58.31
2022-07-31T22:08:24.999Z,58.83
2022-07-31T22:10:52.540Z,59.04
2022-07-31T22:13:20.429Z,59.24
2022-07-31T22:15:54.274Z,60.17
2022-07-31T22:18:29.197Z,60.66
2022-07-31T22:20:57.083Z,60.70
2022-07-31T22:23:24.518Z,60.33
2022-07-31T22:25:51.865Z,59.93
2022-07-31T22:28:20.935Z,59.91
2022-07-31T22:30:48.641Z,60.04
2022-07-31T22:33:15.937Z,59.68
2022-07-31T22:35:44.347Z,58.60
2022-07-31T22:38:11.856Z,57.88
2022-07-31T22:40:38.954Z,57.48
2022-07-31T22:44:10.247Z,58.09
2022-07-31T22:45:54.596Z,58.49
2022-07-31T22:48:24.607Z,58.68
2022-07-31T22:50:55.396Z,58.39
2022-07-31T22:53:22.864Z,59.17
2022-07-31T22:55:53.131Z,59.25
2022-07-31T22:58:20.687Z,60.52
2022-07-31T23:00:48.590Z,60.32
2022-07-31T23:03:16.607Z,60.18
2022-07-31T23:06:02.463Z,61.04
2022-07-31T23:08:30.704Z,61.16
2022-07-31T23:10:57.595Z,61.27
2022-07-31T23:13:24.745Z,60.52
2022-07-31T23:15:51.840Z,60.02
2022-07-31T23:18:18.832Z,60.09
2022-07-31T23:20:45.903Z,60.22
2022-07-31T23:23:12.923Z,60.57
2022-07-31T23:25:39.968Z,60.74
2022-07-31T23:28:07.023Z,59.95
2022-07-31T23:30:34.053Z,60.25
2022-07-31T23:33:01.053Z,61.29
2022-07-31T23:35:28.264Z,61.45
2022-07-31T23:37:55.192Z,61.89
2022-07-31T23:40:22.221Z,62.04
2022-07-31T23:42:51.992Z,61.50
2022-07-31T23:45:18.982Z,61.28
2022-07-31T23:47:47.664Z,61.11
2022-07-31T23:50:15.756Z,61.38
2022-07-31T23:52:44.033Z,62.37
2022-07-31T23:55:11.751Z,63.01
2022-07-31T23:57:40.053Z,63.68
